sensor_id;sensor_type;location;lat;lon;timestamp;P1;durP1;ratioP1;P2;durP2;ratioP2
69047;SDS011;56119;50.118;8.642;2023-02-03T00:02:01;6.07;;;3.03;;
69047;SDS011;56119;50.118;8.642;2023-02-03T00:04:27;4.53;;;2.58;;
69047;SDS011;56119;50.118;8.642;2023-02-03T00:06:53;7.90;;;2.60;;
69047;SDS011;56119;50.118;8.642;2023-02-03T00:09:19;7.93;;;3.33;;
69047;SDS011;56119;50.118;8.642;2023-02-03T00:11:45;9.43;;;3.05;;
69047;SDS011;56119;50.118;8.642;2023-02-03T00:14:11;5.25;;;2.35;;
69047;SDS011;56119;50.118;8.642;2023-02-03T00:16:37;7.30;;;3.15;;
69047;SDS011;56119;50.118;8.642;2023-02-03T00:19:03;5.88;;;2.55;;
69047;SDS011;56119;50.118;8.642;2023-02-03T00:21:29;5.85;;;2.45;;
69047;SDS011;56119;50.118;8.642;2023-02-03T00:23:55;6.60;;;2.60;;
69047;SDS011;56119;50.118;8.642;2023-02-03T00:26:21;5.22;;;2.55;;
69047;SDS011;56119;50.118;8.642;2023-02-03T00:28:49;9.45;;;2.92;;
69047;SDS011;56119;50.118;8.642;2023-02-03T00:31:16;3.85;;;2.50;;
69047;SDS011;56119;50.118;8.642;2023-02-03T00:33:43;8.10;;;2.60;;
69047;SDS011;56119;50.118;8.642;2023-02-03T00:36:09;8.15;;;2.67;;
69047;SDS011;56119;50.118;8.642;2023-02-03T00:38:35;5.60;;;2.40;;
69047;SDS011;56119;50.118;8.642;2023-02-03T00:41:01;6.10;;;2.50;;
69047;SDS011;56119;50.118;8.642;2023-02-03T00:43:27;4.43;;;2.22;;
69047;SDS011;56119;50.118;8.642;2023-02-03T00:45:53;7.20;;;2.38;;
69047;SDS011;56119;50.118;8.642;2023-02-03T00:48:19;6.82;;;2.58;;
69047;SDS011;56119;50.118;8.642;2023-02-03T00:50:45;5.18;;;2.17;;
69047;SDS011;56119;50.118;8.642;2023-02-03T00:53:11;4.82;;;2.38;;
69047;SDS011;56119;50.118;8.642;2023-02-03T00:55:37;8.55;;;2.10;;
69047;SDS011;56119;50.118;8.642;2023-02-03T00:58:03;4.30;;;2.13;;
69047;SDS011;56119;50.118;8.642;2023-02-03T01:00:29;7.82;;;2.67;;
69047;SDS011;56119;50.118;8.642;2023-02-03T01:02:55;5.32;;;2.42;;
69047;SDS011;56119;50.118;8.642;2023-02-03T01:05:21;6.00;;;2.08;;
69047;SDS011;56119;50.118;8.642;2023-02-03T01:07:47;7.45;;;2.25;;
69047;SDS011;56119;50.118;8.642;2023-02-03T01:10:13;4.72;;;2.13;;
69047;SDS011;56119;50.118;8.642;2023-02-03T01:12:39;4.95;;;1.83;;
69047;SDS011;56119;50.118;8.642;2023-02-03T01:15:05;5.53;;;2.60;;
69047;SDS011;56119;50.118;8.642;2023-02-03T01:17:32;5.95;;;2.50;;
69047;SDS011;56119;50.118;8.642;2023-02-03T01:19:57;3.67;;;2.20;;
69047;SDS011;56119;50.118;8.642;2023-02-03T01:22:23;5.93;;;2.45;;
69047;SDS011;56119;50.118;8.642;2023-02-03T01:24:49;5.90;;;2.35;;
69047;SDS011;56119;50.118;8.642;2023-02-03T01:27:15;4.07;;;2.13;;
69047;SDS011;56119;50.118;8.642;2023-02-03T01:29:41;5.05;;;2.40;;
69047;SDS011;56119;50.118;8.642;2023-02-03T01:32:07;5.38;;;2.35;;
69047;SDS011;56119;50.118;8.642;2023-02-03T01:34:33;4.88;;;2.25;;
69047;SDS011;56119;50.118;8.642;2023-02-03T01:36:59;8.65;;;2.90;;
69047;SDS011;56119;50.118;8.642;2023-02-03T01:39:25;4.25;;;2.28;;
69047;SDS011;56119;50.118;8.642;2023-02-03T01:41:53;4.60;;;1.92;;
69047;SDS011;56119;50.118;8.642;2023-02-03T01:44:39;6.32;;;2.22;;
69047;SDS011;56119;50.118;8.642;2023-02-03T01:47:10;5.43;;;2.05;;
69047;SDS011;56119;50.118;8.642;2023-02-03T01:49:38;4.72;;;1.90;;
69047;SDS011;56119;50.118;8.642;2023-02-03T01:52:05;5.30;;;2.00;;
69047;SDS011;56119;50.118;8.642;2023-02-03T01:54:32;4.32;;;1.50;;
69047;SDS011;56119;50.118;8.642;2023-02-03T01:57:02;4.07;;;1.88;;
69047;SDS011;56119;50.118;8.642;2023-02-03T01:59:29;3.30;;;1.85;;
69047;SDS011;56119;50.118;8.642;2023-02-03T02:01:56;5.78;;;1.88;;
69047;SDS011;56119;50.118;8.642;2023-02-03T02:04:24;4.28;;;1.70;;
69047;SDS011;56119;50.118;8.642;2023-02-03T02:06:51;6.55;;;1.60;;
69047;SDS011;56119;50.118;8.642;2023-02-03T02:09:17;3.28;;;1.75;;
69047;SDS011;56119;50.118;8.642;2023-02-03T02:11:43;3.28;;;1.90;;
69047;SDS011;56119;50.118;8.642;2023-02-03T02:14:09;5.13;;;1.90;;
69047;SDS011;56119;50.118;8.642;2023-02-03T02:31:58;3.85;;;1.60;;
69047;SDS011;56119;50.118;8.642;2023-02-03T02:37:01;3.22;;;1.55;;
69047;SDS011;56119;50.118;8.642;2023-02-03T02:39:37;2.25;;;1.33;;
69047;SDS011;56119;50.118;8.642;2023-02-03T02:42:12;4.65;;;1.30;;
69047;SDS011;56119;50.118;8.642;2023-02-03T02:44:44;3.60;;;1.33;;
69047;SDS011;56119;50.118;8.642;2023-02-03T02:47:15;2.95;;;1.30;;
69047;SDS011;56119;50.118;8.642;2023-02-03T02:49:44;5.30;;;1.60;;
69047;SDS011;56119;50.118;8.642;2023-02-03T02:52:12;3.17;;;1.40;;
69047;SDS011;56119;50.118;8.642;2023-02-03T02:54:39;1.92;;;1.55;;
69047;SDS011;56119;50.118;8.642;2023-02-03T02:57:07;2.72;;;1.50;;
69047;SDS011;56119;50.118;8.642;2023-02-03T02:59:34;2.58;;;1.48;;
69047;SDS011;56119;50.118;8.642;2023-02-03T03:02:00;4.00;;;1.33;;
69047;SDS011;56119;50.118;8.642;2023-02-03T03:04:27;3.50;;;1.40;;
69047;SDS011;56119;50.118;8.642;2023-02-03T03:06:58;2.45;;;1.50;;
69047;SDS011;56119;50.118;8.642;2023-02-03T03:11:59;3.83;;;1.52;;
69047;SDS011;56119;50.118;8.642;2023-02-03T03:14:27;3.42;;;1.33;;
69047;SDS011;56119;50.118;8.642;2023-02-03T03:16:56;2.28;;;1.20;;
69047;SDS011;56119;50.118;8.642;2023-02-03T03:19:25;2.50;;;1.17;;
69047;SDS011;56119;50.118;8.642;2023-02-03T03:21:53;1.73;;;1.33;;
69047;SDS011;56119;50.118;8.642;2023-02-03T03:24:22;4.47;;;1.58;;
69047;SDS011;56119;50.118;8.642;2023-02-03T03:27:36;3.55;;;1.33;;
69047;SDS011;56119;50.118;8.642;2023-02-03T03:29:45;4.18;;;1.40;;
69047;SDS011;56119;50.118;8.642;2023-02-03T03:32:13;2.65;;;1.45;;
69047;SDS011;56119;50.118;8.642;2023-02-03T03:34:40;2.83;;;1.50;;
69047;SDS011;56119;50.118;8.642;2023-02-03T03:39:43;1.83;;;1.15;;
69047;SDS011;56119;50.118;8.642;2023-02-03T03:44:44;2.40;;;1.17;;
69047;SDS011;56119;50.118;8.642;2023-02-03T03:49:57;2.45;;;1.42;;
69047;SDS011;56119;50.118;8.642;2023-02-03T03:52:26;1.90;;;1.10;;
69047;SDS011;56119;50.118;8.642;2023-02-03T03:54:54;1.95;;;1.23;;
69047;SDS011;56119;50.118;8.642;2023-02-03T03:57:22;3.17;;;1.33;;
69047;SDS011;56119;50.118;8.642;2023-02-03T03:59:49;2.05;;;1.33;;
69047;SDS011;56119;50.118;8.642;2023-02-03T04:02:16;3.30;;;1.70;;
69047;SDS011;56119;50.118;8.642;2023-02-03T04:04:43;4.10;;;1.40;;
69047;SDS011;56119;50.118;8.642;2023-02-03T04:07:11;2.25;;;1.67;;
69047;SDS011;56119;50.118;8.642;2023-02-03T04:09:38;2.30;;;1.35;;
69047;SDS011;56119;50.118;8.642;2023-02-03T04:12:08;3.22;;;1.60;;
69047;SDS011;56119;50.118;8.642;2023-02-03T04:14:38;2.28;;;1.38;;
69047;SDS011;56119;50.118;8.642;2023-02-03T04:17:04;2.35;;;1.42;;
69047;SDS011;56119;50.118;8.642;2023-02-03T04:19:31;1.48;;;1.38;;
69047;SDS011;56119;50.118;8.642;2023-02-03T04:21:57;3.47;;;1.30;;
69047;SDS011;56119;50.118;8.642;2023-02-03T04:24:23;1.23;;;1.13;;
69047;SDS011;56119;50.118;8.642;2023-02-03T04:26:49;2.08;;;1.30;;
69047;SDS011;56119;50.118;8.642;2023-02-03T04:29:15;2.17;;;1.00;;
69047;SDS011;56119;50.118;8.642;2023-02-03T04:31:41;1.70;;;1.20;;
69047;SDS011;56119;50.118;8.642;2023-02-03T04:34:07;3.17;;;1.30;;
69047;SDS011;56119;50.118;8.642;2023-02-03T04:36:32;1.63;;;1.00;;
69047;SDS011;56119;50.118;8.642;2023-02-03T04:38:58;2.10;;;1.23;;
69047;SDS011;56119;50.118;8.642;2023-02-03T04:41:24;1.85;;;1.27;;
69047;SDS011;56119;50.118;8.642;2023-02-03T04:43:50;3.05;;;1.23;;
69047;SDS011;56119;50.118;8.642;2023-02-03T04:46:16;2.45;;;1.13;;
69047;SDS011;56119;50.118;8.642;2023-02-03T04:48:43;1.60;;;1.25;;
69047;SDS011;56119;50.118;8.642;2023-02-03T04:51:08;3.80;;;1.30;;
69047;SDS011;56119;50.118;8.642;2023-02-03T04:53:35;1.60;;;1.48;;
69047;SDS011;56119;50.118;8.642;2023-02-03T04:56:01;1.70;;;1.27;;
69047;SDS011;56119;50.118;8.642;2023-02-03T04:58:27;1.92;;;1.40;;
69047;SDS011;56119;50.118;8.642;2023-02-03T05:00:53;2.00;;;1.50;;
69047;SDS011;56119;50.118;8.642;2023-02-03T05:03:19;2.10;;;1.50;;
69047;SDS011;56119;50.118;8.642;2023-02-03T05:05:45;3.60;;;1.95;;
69047;SDS011;56119;50.118;8.642;2023-02-03T05:08:11;2.85;;;1.73;;
69047;SDS011;56119;50.118;8.642;2023-02-03T05:10:37;3.67;;;1.67;;
69047;SDS011;56119;50.118;8.642;2023-02-03T05:13:03;2.92;;;2.13;;
69047;SDS011;56119;50.118;8.642;2023-02-03T05:15:29;2.83;;;1.80;;
69047;SDS011;56119;50.118;8.642;2023-02-03T05:17:55;2.92;;;1.77;;
69047;SDS011;56119;50.118;8.642;2023-02-03T05:20:21;2.35;;;1.63;;
69047;SDS011;56119;50.118;8.642;2023-02-03T05:22:47;3.13;;;2.20;;
69047;SDS011;56119;50.118;8.642;2023-02-03T05:25:13;6.95;;;1.85;;
69047;SDS011;56119;50.118;8.642;2023-02-03T05:27:39;3.75;;;1.70;;
69047;SDS011;56119;50.118;8.642;2023-02-03T05:30:06;1.75;;;1.25;;
69047;SDS011;56119;50.118;8.642;2023-02-03T05:32:32;1.55;;;1.42;;
69047;SDS011;56119;50.118;8.642;2023-02-03T05:34:58;2.55;;;1.90;;
69047;SDS011;56119;50.118;8.642;2023-02-03T05:37:24;3.00;;;1.50;;
69047;SDS011;56119;50.118;8.642;2023-02-03T05:39:50;1.90;;;1.50;;
69047;SDS011;56119;50.118;8.642;2023-02-03T05:42:16;3.13;;;1.42;;
69047;SDS011;56119;50.118;8.642;2023-02-03T05:44:42;3.92;;;1.50;;
69047;SDS011;56119;50.118;8.642;2023-02-03T05:47:08;3.20;;;1.70;;
69047;SDS011;56119;50.118;8.642;2023-02-03T05:49:34;2.08;;;1.35;;
69047;SDS011;56119;50.118;8.642;2023-02-03T05:52:00;2.03;;;1.52;;
69047;SDS011;56119;50.118;8.642;2023-02-03T05:54:26;3.35;;;1.75;;
69047;SDS011;56119;50.118;8.642;2023-02-03T05:56:52;3.30;;;1.33;;
69047;SDS011;56119;50.118;8.642;2023-02-03T05:59:18;2.60;;;1.75;;
69047;SDS011;56119;50.118;8.642;2023-02-03T06:01:44;3.90;;;2.22;;
69047;SDS011;56119;50.118;8.642;2023-02-03T06:04:10;3.67;;;1.60;;
69047;SDS011;56119;50.118;8.642;2023-02-03T06:06:36;3.65;;;1.55;;
69047;SDS011;56119;50.118;8.642;2023-02-03T06:09:03;3.50;;;1.63;;
69047;SDS011;56119;50.118;8.642;2023-02-03T06:11:29;3.17;;;1.65;;
69047;SDS011;56119;50.118;8.642;2023-02-03T06:13:55;1.77;;;1.38;;
69047;SDS011;56119;50.118;8.642;2023-02-03T06:16:22;2.38;;;1.55;;
69047;SDS011;56119;50.118;8.642;2023-02-03T06:18:49;2.30;;;1.45;;
69047;SDS011;56119;50.118;8.642;2023-02-03T06:21:15;4.20;;;1.50;;
69047;SDS011;56119;50.118;8.642;2023-02-03T06:23:41;2.10;;;1.40;;
69047;SDS011;56119;50.118;8.642;2023-02-03T06:26:07;2.92;;;1.50;;
69047;SDS011;56119;50.118;8.642;2023-02-03T06:28:33;2.85;;;1.50;;
69047;SDS011;56119;50.118;8.642;2023-02-03T06:30:59;3.70;;;1.70;;
69047;SDS011;56119;50.118;8.642;2023-02-03T06:33:25;6.13;;;1.98;;
69047;SDS011;56119;50.118;8.642;2023-02-03T06:35:52;2.30;;;1.40;;
69047;SDS011;56119;50.118;8.642;2023-02-03T06:38:18;6.22;;;1.50;;
69047;SDS011;56119;50.118;8.642;2023-02-03T06:40:47;5.90;;;1.38;;
69047;SDS011;56119;50.118;8.642;2023-02-03T06:43:13;5.53;;;1.60;;
69047;SDS011;56119;50.118;8.642;2023-02-03T06:45:40;4.63;;;1.98;;
69047;SDS011;56119;50.118;8.642;2023-02-03T06:48:06;3.38;;;1.50;;
69047;SDS011;56119;50.118;8.642;2023-02-03T06:50:32;6.55;;;1.77;;
69047;SDS011;56119;50.118;8.642;2023-02-03T06:52:58;2.58;;;1.60;;
69047;SDS011;56119;50.118;8.642;2023-02-03T06:55:24;2.58;;;1.63;;
69047;SDS011;56119;50.118;8.642;2023-02-03T06:57:50;3.60;;;1.73;;
69047;SDS011;56119;50.118;8.642;2023-02-03T07:00:17;4.00;;;1.90;;
69047;SDS011;56119;50.118;8.642;2023-02-03T07:02:43;3.67;;;1.77;;
69047;SDS011;56119;50.118;8.642;2023-02-03T07:05:09;3.58;;;1.85;;
69047;SDS011;56119;50.118;8.642;2023-02-03T07:07:35;5.47;;;1.88;;
69047;SDS011;56119;50.118;8.642;2023-02-03T07:10:03;3.75;;;1.63;;
69047;SDS011;56119;50.118;8.642;2023-02-03T07:12:29;3.35;;;1.85;;
69047;SDS011;56119;50.118;8.642;2023-02-03T07:14:56;3.15;;;2.30;;
69047;SDS011;56119;50.118;8.642;2023-02-03T07:17:22;3.25;;;1.88;;
69047;SDS011;56119;50.118;8.642;2023-02-03T07:19:48;5.78;;;2.20;;
69047;SDS011;56119;50.118;8.642;2023-02-03T07:22:14;2.83;;;1.85;;
69047;SDS011;56119;50.118;8.642;2023-02-03T07:24:40;3.63;;;1.90;;
69047;SDS011;56119;50.118;8.642;2023-02-03T07:27:06;2.47;;;1.50;;
69047;SDS011;56119;50.118;8.642;2023-02-03T07:29:32;2.63;;;2.00;;
69047;SDS011;56119;50.118;8.642;2023-02-03T07:31:58;4.57;;;1.92;;
69047;SDS011;56119;50.118;8.642;2023-02-03T07:34:26;2.50;;;1.67;;
69047;SDS011;56119;50.118;8.642;2023-02-03T07:36:52;5.30;;;1.92;;
69047;SDS011;56119;50.118;8.642;2023-02-03T07:39:18;3.15;;;2.00;;
69047;SDS011;56119;50.118;8.642;2023-02-03T07:41:44;5.65;;;1.85;;
69047;SDS011;56119;50.118;8.642;2023-02-03T07:44:10;3.38;;;1.55;;
69047;SDS011;56119;50.118;8.642;2023-02-03T07:46:36;3.15;;;1.65;;
69047;SDS011;56119;50.118;8.642;2023-02-03T07:49:09;4.13;;;1.75;;
69047;SDS011;56119;50.118;8.642;2023-02-03T07:51:35;4.10;;;1.70;;
69047;SDS011;56119;50.118;8.642;2023-02-03T07:54:01;3.90;;;2.10;;
69047;SDS011;56119;50.118;8.642;2023-02-03T07:56:27;5.53;;;1.88;;
69047;SDS011;56119;50.118;8.642;2023-02-03T07:58:54;4.35;;;1.73;;
69047;SDS011;56119;50.118;8.642;2023-02-03T08:01:20;3.42;;;1.40;;
69047;SDS011;56119;50.118;8.642;2023-02-03T08:03:46;3.45;;;1.88;;
69047;SDS011;56119;50.118;8.642;2023-02-03T08:06:12;3.35;;;1.88;;
69047;SDS011;56119;50.118;8.642;2023-02-03T08:08:39;2.85;;;1.70;;
69047;SDS011;56119;50.118;8.642;2023-02-03T08:11:05;4.18;;;1.70;;
69047;SDS011;56119;50.118;8.642;2023-02-03T08:13:31;3.28;;;1.60;;
69047;SDS011;56119;50.118;8.642;2023-02-03T08:15:57;4.43;;;1.75;;
69047;SDS011;56119;50.118;8.642;2023-02-03T08:18:23;8.73;;;1.73;;
69047;SDS011;56119;50.118;8.642;2023-02-03T08:20:49;4.30;;;2.28;;
69047;SDS011;56119;50.118;8.642;2023-02-03T08:23:15;2.17;;;1.48;;
69047;SDS011;56119;50.118;8.642;2023-02-03T08:25:41;4.13;;;1.73;;
69047;SDS011;56119;50.118;8.642;2023-02-03T08:28:08;4.75;;;1.40;;
69047;SDS011;56119;50.118;8.642;2023-02-03T08:30:34;3.47;;;1.60;;
69047;SDS011;56119;50.118;8.642;2023-02-03T08:33:00;2.80;;;1.20;;
69047;SDS011;56119;50.118;8.642;2023-02-03T08:35:26;5.80;;;1.48;;
69047;SDS011;56119;50.118;8.642;2023-02-03T08:37:52;4.78;;;1.52;;
69047;SDS011;56119;50.118;8.642;2023-02-03T08:40:18;3.13;;;1.58;;
69047;SDS011;56119;50.118;8.642;2023-02-03T08:42:43;3.80;;;1.40;;
69047;SDS011;56119;50.118;8.642;2023-02-03T08:45:10;4.30;;;1.52;;
69047;SDS011;56119;50.118;8.642;2023-02-03T08:47:36;6.60;;;1.65;;
69047;SDS011;56119;50.118;8.642;2023-02-03T08:50:03;1.98;;;1.23;;
69047;SDS011;56119;50.118;8.642;2023-02-03T08:52:30;2.63;;;1.17;;
69047;SDS011;56119;50.118;8.642;2023-02-03T08:54:56;2.05;;;1.02;;
69047;SDS011;56119;50.118;8.642;2023-02-03T08:57:21;2.55;;;1.27;;
69047;SDS011;56119;50.118;8.642;2023-02-03T08:59:47;3.28;;;1.33;;
69047;SDS011;56119;50.118;8.642;2023-02-03T09:02:16;5.85;;;1.20;;
69047;SDS011;56119;50.118;8.642;2023-02-03T09:04:42;4.80;;;1.35;;
69047;SDS011;56119;50.118;8.642;2023-02-03T09:07:08;5.50;;;1.15;;
69047;SDS011;56119;50.118;8.642;2023-02-03T09:09:35;3.42;;;1.20;;
69047;SDS011;56119;50.118;8.642;2023-02-03T09:12:01;4.00;;;1.30;;
69047;SDS011;56119;50.118;8.642;2023-02-03T09:14:32;2.10;;;0.95;;
69047;SDS011;56119;50.118;8.642;2023-02-03T09:17:02;3.20;;;0.90;;
69047;SDS011;56119;50.118;8.642;2023-02-03T09:19:29;4.10;;;1.30;;
69047;SDS011;56119;50.118;8.642;2023-02-03T09:21:55;3.38;;;1.05;;
69047;SDS011;56119;50.118;8.642;2023-02-03T09:24:21;5.47;;;1.15;;
69047;SDS011;56119;50.118;8.642;2023-02-03T09:26:47;5.68;;;2.05;;
69047;SDS011;56119;50.118;8.642;2023-02-03T09:29:13;3.15;;;1.00;;
69047;SDS011;56119;50.118;8.642;2023-02-03T09:31:39;1.85;;;1.00;;
69047;SDS011;56119;50.118;8.642;2023-02-03T09:34:05;3.17;;;1.17;;
69047;SDS011;56119;50.118;8.642;2023-02-03T09:36:31;3.80;;;1.20;;
69047;SDS011;56119;50.118;8.642;2023-02-03T09:38:57;5.22;;;1.42;;
69047;SDS011;56119;50.118;8.642;2023-02-03T09:44:07;2.17;;;1.10;;
69047;SDS011;56119;50.118;8.642;2023-02-03T09:46:43;2.63;;;1.23;;
69047;SDS011;56119;50.118;8.642;2023-02-03T09:51:41;3.22;;;1.00;;
69047;SDS011;56119;50.118;8.642;2023-02-03T09:54:15;2.90;;;0.88;;
69047;SDS011;56119;50.118;8.642;2023-02-03T09:56:42;2.83;;;0.95;;
69047;SDS011;56119;50.118;8.642;2023-02-03T09:59:14;5.53;;;1.30;;
69047;SDS011;56119;50.118;8.642;2023-02-03T10:01:43;1.85;;;0.98;;
69047;SDS011;56119;50.118;8.642;2023-02-03T10:07:19;3.28;;;1.65;;
69047;SDS011;56119;50.118;8.642;2023-02-03T10:17:31;4.60;;;0.93;;
69047;SDS011;56119;50.118;8.642;2023-02-03T10:22:39;4.55;;;1.10;;
69047;SDS011;56119;50.118;8.642;2023-02-03T10:25:15;4.50;;;1.10;;
69047;SDS011;56119;50.118;8.642;2023-02-03T10:27:44;1.65;;;0.90;;
69047;SDS011;56119;50.118;8.642;2023-02-03T10:30:23;4.63;;;1.40;;
69047;SDS011;56119;50.118;8.642;2023-02-03T10:32:53;7.05;;;1.05;;
69047;SDS011;56119;50.118;8.642;2023-02-03T10:35:20;3.35;;;1.27;;
69047;SDS011;56119;50.118;8.642;2023-02-03T10:37:50;2.80;;;1.30;;
69047;SDS011;56119;50.118;8.642;2023-02-03T10:40:19;2.95;;;0.90;;
69047;SDS011;56119;50.118;8.642;2023-02-03T10:42:46;3.03;;;1.25;;
69047;SDS011;56119;50.118;8.642;2023-02-03T10:45:35;6.72;;;1.35;;
69047;SDS011;56119;50.118;8.642;2023-02-03T10:48:01;2.92;;;1.27;;
69047;SDS011;56119;50.118;8.642;2023-02-03T10:50:27;2.58;;;1.10;;
69047;SDS011;56119;50.118;8.642;2023-02-03T10:55:41;2.55;;;1.02;;
69047;SDS011;56119;50.118;8.642;2023-02-03T10:58:10;4.60;;;1.10;;
69047;SDS011;56119;50.118;8.642;2023-02-03T11:00:37;4.35;;;1.00;;
69047;SDS011;56119;50.118;8.642;2023-02-03T11:03:07;6.03;;;1.23;;
69047;SDS011;56119;50.118;8.642;2023-02-03T11:05:41;4.80;;;1.42;;
69047;SDS011;56119;50.118;8.642;2023-02-03T11:08:13;2.63;;;0.90;;
69047;SDS011;56119;50.118;8.642;2023-02-03T11:10:40;2.38;;;0.88;;
69047;SDS011;56119;50.118;8.642;2023-02-03T11:13:23;4.72;;;0.90;;
69047;SDS011;56119;50.118;8.642;2023-02-03T11:21:06;3.90;;;0.95;;
69047;SDS011;56119;50.118;8.642;2023-02-03T11:23:33;2.47;;;0.80;;
69047;SDS011;56119;50.118;8.642;2023-02-03T11:26:07;3.72;;;1.00;;
69047;SDS011;56119;50.118;8.642;2023-02-03T11:28:34;3.42;;;0.90;;
69047;SDS011;56119;50.118;8.642;2023-02-03T11:31:00;2.22;;;0.80;;
69047;SDS011;56119;50.118;8.642;2023-02-03T11:33:26;2.40;;;0.93;;
69047;SDS011;56119;50.118;8.642;2023-02-03T11:35:59;3.88;;;1.52;;
69047;SDS011;56119;50.118;8.642;2023-02-03T11:38:31;1.17;;;0.85;;
69047;SDS011;56119;50.118;8.642;2023-02-03T11:40:58;3.17;;;1.58;;
69047;SDS011;56119;50.118;8.642;2023-02-03T11:43:25;4.50;;;0.93;;
69047;SDS011;56119;50.118;8.642;2023-02-03T11:45:53;2.55;;;0.95;;
69047;SDS011;56119;50.118;8.642;2023-02-03T11:48:23;2.63;;;0.88;;
69047;SDS011;56119;50.118;8.642;2023-02-03T11:50:53;2.83;;;1.00;;
69047;SDS011;56119;50.118;8.642;2023-02-03T12:21:56;3.35;;;1.00;;
69047;SDS011;56119;50.118;8.642;2023-02-03T12:27:15;5.82;;;1.05;;
69047;SDS011;56119;50.118;8.642;2023-02-03T12:29:56;1.40;;;0.82;;
69047;SDS011;56119;50.118;8.642;2023-02-03T12:32:28;3.88;;;0.70;;
69047;SDS011;56119;50.118;8.642;2023-02-03T12:35:10;3.10;;;1.00;;
69047;SDS011;56119;50.118;8.642;2023-02-03T12:37:42;4.95;;;2.08;;
69047;SDS011;56119;50.118;8.642;2023-02-03T12:42:43;2.20;;;0.80;;
69047;SDS011;56119;50.118;8.642;2023-02-03T12:45:12;2.47;;;0.98;;
69047;SDS011;56119;50.118;8.642;2023-02-03T12:47:40;4.47;;;1.25;;
69047;SDS011;56119;50.118;8.642;2023-02-03T12:50:17;2.15;;;1.10;;
69047;SDS011;56119;50.118;8.642;2023-02-03T12:52:51;1.08;;;0.88;;
69047;SDS011;56119;50.118;8.642;2023-02-03T13:00:49;2.78;;;0.85;;
69047;SDS011;56119;50.118;8.642;2023-02-03T13:06:09;3.00;;;1.10;;
69047;SDS011;56119;50.118;8.642;2023-02-03T13:14:13;3.15;;;1.20;;
69047;SDS011;56119;50.118;8.642;2023-02-03T13:16:42;2.55;;;1.50;;
69047;SDS011;56119;50.118;8.642;2023-02-03T13:19:15;1.42;;;0.90;;
69047;SDS011;56119;50.118;8.642;2023-02-03T13:21:42;2.45;;;0.98;;
69047;SDS011;56119;50.118;8.642;2023-02-03T13:24:10;8.38;;;2.03;;
69047;SDS011;56119;50.118;8.642;2023-02-03T13:26:50;3.08;;;1.10;;
69047;SDS011;56119;50.118;8.642;2023-02-03T13:32:18;3.05;;;1.30;;
69047;SDS011;56119;50.118;8.642;2023-02-03T13:34:54;2.58;;;1.00;;
69047;SDS011;56119;50.118;8.642;2023-02-03T13:42:40;11.00;;;3.22;;
69047;SDS011;56119;50.118;8.642;2023-02-03T13:45:29;4.50;;;1.05;;
69047;SDS011;56119;50.118;8.642;2023-02-03T13:47:58;3.22;;;1.27;;
69047;SDS011;56119;50.118;8.642;2023-02-03T13:50:29;3.63;;;1.05;;
69047;SDS011;56119;50.118;8.642;2023-02-03T13:53:02;1.73;;;0.85;;
69047;SDS011;56119;50.118;8.642;2023-02-03T13:55:38;2.70;;;1.00;;
69047;SDS011;56119;50.118;8.642;2023-02-03T13:58:06;2.28;;;1.00;;
69047;SDS011;56119;50.118;8.642;2023-02-03T14:03:18;3.08;;;1.00;;
69047;SDS011;56119;50.118;8.642;2023-02-03T14:05:45;1.45;;;0.90;;
69047;SDS011;56119;50.118;8.642;2023-02-03T14:11:30;7.80;;;1.65;;
69047;SDS011;56119;50.118;8.642;2023-02-03T14:13:34;1.23;;;0.85;;
69047;SDS011;56119;50.118;8.642;2023-02-03T14:18:49;3.22;;;1.30;;
69047;SDS011;56119;50.118;8.642;2023-02-03T14:21:16;3.25;;;1.40;;
69047;SDS011;56119;50.118;8.642;2023-02-03T14:23:45;2.83;;;1.48;;
69047;SDS011;56119;50.118;8.642;2023-02-03T14:26:16;2.97;;;1.60;;
69047;SDS011;56119;50.118;8.642;2023-02-03T14:28:44;3.30;;;1.40;;
69047;SDS011;56119;50.118;8.642;2023-02-03T14:31:12;2.33;;;1.38;;
69047;SDS011;56119;50.118;8.642;2023-02-03T14:33:45;3.58;;;1.45;;
69047;SDS011;56119;50.118;8.642;2023-02-03T14:38:52;3.35;;;1.30;;
69047;SDS011;56119;50.118;8.642;2023-02-03T14:41:32;2.80;;;1.30;;
69047;SDS011;56119;50.118;8.642;2023-02-03T14:44:03;3.13;;;1.33;;
69047;SDS011;56119;50.118;8.642;2023-02-03T14:51:34;2.50;;;1.10;;
69047;SDS011;56119;50.118;8.642;2023-02-03T14:56:48;3.47;;;1.23;;
69047;SDS011;56119;50.118;8.642;2023-02-03T14:59:47;1.13;;;0.80;;
69047;SDS011;56119;50.118;8.642;2023-02-03T15:02:15;1.38;;;1.00;;
69047;SDS011;56119;50.118;8.642;2023-02-03T15:04:41;2.75;;;1.00;;
69047;SDS011;56119;50.118;8.642;2023-02-03T15:07:09;2.13;;;1.00;;
69047;SDS011;56119;50.118;8.642;2023-02-03T15:09:55;1.40;;;0.70;;
69047;SDS011;56119;50.118;8.642;2023-02-03T15:12:25;2.20;;;0.80;;
69047;SDS011;56119;50.118;8.642;2023-02-03T15:14:51;1.88;;;0.75;;
69047;SDS011;56119;50.118;8.642;2023-02-03T15:19:47;2.88;;;1.15;;
69047;SDS011;56119;50.118;8.642;2023-02-03T15:22:23;1.27;;;0.80;;
69047;SDS011;56119;50.118;8.642;2023-02-03T15:24:51;2.53;;;1.20;;
69047;SDS011;56119;50.118;8.642;2023-02-03T15:27:21;2.03;;;1.30;;
69047;SDS011;56119;50.118;8.642;2023-02-03T15:29:48;2.53;;;1.05;;
69047;SDS011;56119;50.118;8.642;2023-02-03T15:32:25;3.33;;;0.98;;
69047;SDS011;56119;50.118;8.642;2023-02-03T15:34:53;4.13;;;1.40;;
69047;SDS011;56119;50.118;8.642;2023-02-03T15:37:22;1.00;;;0.90;;
69047;SDS011;56119;50.118;8.642;2023-02-03T15:39:54;2.13;;;1.05;;
69047;SDS011;56119;50.118;8.642;2023-02-03T15:42:25;2.80;;;1.25;;
69047;SDS011;56119;50.118;8.642;2023-02-03T15:47:22;1.90;;;1.08;;
69047;SDS011;56119;50.118;8.642;2023-02-03T15:49:52;2.90;;;1.02;;
69047;SDS011;56119;50.118;8.642;2023-02-03T15:52:20;2.95;;;1.10;;
69047;SDS011;56119;50.118;8.642;2023-02-03T15:54:50;3.65;;;1.35;;
69047;SDS011;56119;50.118;8.642;2023-02-03T15:57:20;4.00;;;2.40;;
69047;SDS011;56119;50.118;8.642;2023-02-03T15:59:54;5.20;;;2.47;;
69047;SDS011;56119;50.118;8.642;2023-02-03T16:02:24;4.15;;;1.30;;
69047;SDS011;56119;50.118;8.642;2023-02-03T16:04:52;1.75;;;1.20;;
69047;SDS011;56119;50.118;8.642;2023-02-03T16:07:20;3.58;;;1.27;;
69047;SDS011;56119;50.118;8.642;2023-02-03T16:09:46;1.85;;;1.50;;
69047;SDS011;56119;50.118;8.642;2023-02-03T16:12:16;3.55;;;1.50;;
69047;SDS011;56119;50.118;8.642;2023-02-03T16:14:43;4.35;;;1.63;;
69047;SDS011;56119;50.118;8.642;2023-02-03T16:17:20;3.00;;;1.70;;
69047;SDS011;56119;50.118;8.642;2023-02-03T16:19:47;5.22;;;1.77;;
69047;SDS011;56119;50.118;8.642;2023-02-03T16:22:34;3.05;;;1.70;;
69047;SDS011;56119;50.118;8.642;2023-02-03T16:28:03;3.45;;;1.73;;
69047;SDS011;56119;50.118;8.642;2023-02-03T16:30:55;4.03;;;1.60;;
69047;SDS011;56119;50.118;8.642;2023-02-03T16:33:47;3.42;;;1.50;;
69047;SDS011;56119;50.118;8.642;2023-02-03T16:36:32;3.33;;;1.50;;
69047;SDS011;56119;50.118;8.642;2023-02-03T16:39:17;2.67;;;1.67;;
69047;SDS011;56119;50.118;8.642;2023-02-03T16:42:06;4.53;;;1.75;;
69047;SDS011;56119;50.118;8.642;2023-02-03T16:44:52;3.90;;;1.50;;
69047;SDS011;56119;50.118;8.642;2023-02-03T16:47:37;2.13;;;1.67;;
69047;SDS011;56119;50.118;8.642;2023-02-03T16:50:22;2.25;;;1.75;;
69047;SDS011;56119;50.118;8.642;2023-02-03T16:53:10;6.45;;;2.38;;
69047;SDS011;56119;50.118;8.642;2023-02-03T16:55:37;4.97;;;2.13;;
69047;SDS011;56119;50.118;8.642;2023-02-03T16:58:02;3.17;;;2.00;;
69047;SDS011;56119;50.118;8.642;2023-02-03T17:00:28;4.28;;;2.00;;
69047;SDS011;56119;50.118;8.642;2023-02-03T17:02:54;5.65;;;2.13;;
69047;SDS011;56119;50.118;8.642;2023-02-03T17:05:20;4.40;;;2.15;;
69047;SDS011;56119;50.118;8.642;2023-02-03T17:07:46;4.47;;;2.97;;
69047;SDS011;56119;50.118;8.642;2023-02-03T17:10:14;2.75;;;2.03;;
69047;SDS011;56119;50.118;8.642;2023-02-03T17:12:41;4.20;;;2.10;;
69047;SDS011;56119;50.118;8.642;2023-02-03T17:15:07;3.92;;;2.42;;